Weather at Gush Katif Airport [CLOSED]

Public forecast

Using degrees Celsius for public forecast. Weather courtesy of forecast.io.

Closest aviation weather report (METAR) to Gush Katif Airport

Report is more than 6 hours old.

Closest report is El Arish International Airport, 29.4 nm (54.5 km) SW. Retrieved 2020/08/15 22:00 UTC (4 months ago):

HEAR 152200Z 20010KT CAVOK 31/21 Q1007 NOSIG

Closest aviation forecast (TAF) to Gush Katif Airport

Forecast is more than 12 hours old.

Closest forecast is El Gora Airport, 19.8 nm (36.7 km) SSW. Retrieved 2020/11/26 06:00 UTC (5 days ago):

TAF HEGR 260500Z 2606/2712 31010KT 9999 SCT020 TEMPO 2606/2615 4000 RA BKN025 TEMPO 2606/2612 2000 TSSHRA FEW017CB